createdAt,value
2023-05-05T00:01:33.377Z,9.40
2023-05-05T00:04:00.593Z,9.40
2023-05-05T00:06:31.392Z,9.30
2023-05-05T00:08:58.566Z,9.20
2023-05-05T00:11:26.111Z,9.20
2023-05-05T00:13:53.228Z,9.20
2023-05-05T00:16:20.500Z,9.20
2023-05-05T00:18:48.097Z,9.20
2023-05-05T00:21:15.729Z,9.10
2023-05-05T00:23:42.918Z,9.20
2023-05-05T00:26:09.993Z,9.20
2023-05-05T00:28:38.389Z,9.10
2023-05-05T00:31:05.711Z,9.00
2023-05-05T00:33:33.012Z,8.90
2023-05-05T00:36:00.152Z,8.80
2023-05-05T00:38:27.392Z,8.70
2023-05-05T00:40:54.602Z,8.70
2023-05-05T00:43:21.755Z,8.60
2023-05-05T00:46:02.027Z,8.60
2023-05-05T00:48:32.717Z,8.70
2023-05-05T00:51:00.222Z,8.70
2023-05-05T00:53:27.700Z,8.60
2023-05-05T00:55:55.022Z,8.60
2023-05-05T00:58:22.189Z,8.60
2023-05-05T01:00:49.311Z,8.50
2023-05-05T01:03:16.859Z,8.50
2023-05-05T01:06:16.589Z,8.60
2023-05-05T01:09:08.021Z,8.60
2023-05-05T01:11:49.555Z,8.50
2023-05-05T01:14:20.529Z,8.40
2023-05-05T01:17:04.086Z,8.40
2023-05-05T01:19:33.970Z,8.40
2023-05-05T01:22:04.881Z,8.40
2023-05-05T01:24:56.550Z,8.40
2023-05-05T01:27:45.500Z,8.30
2023-05-05T01:30:39.335Z,8.30
2023-05-05T01:33:11.668Z,8.30
2023-05-05T01:35:45.997Z,8.30
2023-05-05T01:38:21.825Z,8.30
2023-05-05T01:41:04.804Z,8.30
2023-05-05T01:43:35.306Z,8.30
2023-05-05T01:46:03.490Z,8.30
2023-05-05T01:48:33.354Z,8.30
2023-05-05T01:51:05.343Z,8.20
2023-05-05T01:53:34.422Z,8.20
2023-05-05T01:56:03.037Z,8.10
2023-05-05T01:58:32.525Z,8.10
2023-05-05T02:00:59.902Z,8.00
2023-05-05T02:03:29.449Z,8.00
2023-05-05T02:05:58.789Z,8.00
2023-05-05T02:08:26.952Z,8.00
2023-05-05T02:10:55.843Z,8.00
2023-05-05T02:13:26.155Z,8.00
2023-05-05T02:15:55.010Z,8.00
2023-05-05T02:18:23.554Z,8.00
2023-05-05T02:20:50.812Z,7.90
2023-05-05T02:23:18.161Z,7.90
2023-05-05T02:25:51.100Z,7.80
2023-05-05T02:28:31.653Z,7.90
2023-05-05T02:31:00.667Z,7.90
2023-05-05T02:33:33.282Z,7.90
2023-05-05T02:36:27.840Z,7.90
2023-05-05T02:39:04.671Z,7.90
2023-05-05T02:41:39.553Z,8.00
2023-05-05T02:44:14.091Z,8.00
2023-05-05T02:46:42.834Z,8.00
2023-05-05T02:49:10.152Z,8.00
2023-05-05T02:51:39.162Z,8.00
2023-05-05T02:54:12.597Z,8.00
2023-05-05T02:56:51.824Z,8.10
2023-05-05T02:59:57.082Z,8.20
2023-05-05T03:02:45.133Z,8.20
2023-05-05T03:05:23.470Z,8.30
2023-05-05T03:08:05.549Z,8.30
2023-05-05T03:10:54.758Z,8.30
2023-05-05T03:13:25.381Z,8.30
2023-05-05T03:15:54.167Z,8.20
2023-05-05T03:18:25.800Z,8.10
2023-05-05T03:21:08.037Z,8.10
2023-05-05T03:23:37.599Z,8.00
2023-05-05T03:26:09.259Z,8.00
2023-05-05T03:28:40.711Z,7.90
2023-05-05T03:31:15.965Z,7.90
2023-05-05T03:33:43.213Z,7.90
2023-05-05T03:36:10.709Z,8.00
2023-05-05T03:38:40.197Z,8.00
2023-05-05T03:41:07.828Z,8.00
2023-05-05T03:43:35.549Z,8.00
2023-05-05T03:46:02.894Z,8.10
2023-05-05T03:48:30.274Z,8.10
2023-05-05T03:50:57.818Z,8.10
2023-05-05T03:53:27.268Z,8.20
2023-05-05T03:55:54.963Z,8.30
2023-05-05T03:58:22.291Z,8.40
2023-05-05T04:00:49.731Z,8.50
2023-05-05T04:03:19.237Z,8.50
2023-05-05T04:05:47.124Z,8.50
2023-05-05T04:08:14.467Z,8.60
2023-05-05T04:10:41.881Z,8.60
2023-05-05T04:13:09.360Z,8.70
2023-05-05T04:15:37.113Z,8.70
2023-05-05T04:18:04.347Z,8.80
2023-05-05T04:20:31.483Z,8.80
2023-05-05T04:22:58.696Z,8.90
2023-05-05T04:25:25.852Z,8.90
2023-05-05T04:27:53.150Z,9.00
2023-05-05T04:30:20.397Z,9.00
2023-05-05T04:32:47.524Z,9.10
2023-05-05T04:35:14.994Z,9.20
2023-05-05T04:37:43.200Z,9.40
2023-05-05T04:40:11.035Z,9.50
2023-05-05T04:42:45.654Z,9.50
2023-05-05T04:45:13.342Z,9.60
2023-05-05T04:47:41.053Z,9.70
2023-05-05T04:50:09.957Z,9.70
2023-05-05T04:52:37.728Z,9.80
2023-05-05T04:55:05.870Z,9.90
2023-05-05T04:57:33.839Z,9.90
2023-05-05T05:00:01.740Z,9.80
2023-05-05T05:02:29.139Z,9.70
2023-05-05T05:04:56.366Z,9.70
2023-05-05T05:07:24.282Z,9.80
2023-05-05T05:09:51.889Z,9.70
2023-05-05T05:12:19.047Z,9.80
2023-05-05T05:14:46.175Z,10.00
2023-05-05T05:17:13.550Z,10.00
2023-05-05T05:19:41.409Z,10.00
2023-05-05T05:22:09.080Z,10.00
2023-05-05T05:24:39.301Z,10.00
2023-05-05T05:27:10.183Z,10.10
2023-05-05T05:29:39.845Z,10.10
2023-05-05T05:32:07.076Z,10.20
2023-05-05T05:34:34.714Z,10.40
2023-05-05T05:37:02.681Z,10.80
2023-05-05T05:39:29.797Z,11.10
2023-05-05T05:41:57.468Z,11.20
2023-05-05T05:44:25.272Z,11.50
2023-05-05T05:46:52.396Z,11.70
2023-05-05T05:49:19.616Z,11.70
2023-05-05T05:51:47.222Z,11.80
2023-05-05T05:54:14.399Z,11.80
2023-05-05T05:56:42.970Z,11.90
2023-05-05T05:59:10.732Z,11.90
2023-05-05T06:01:40.493Z,11.90
2023-05-05T06:04:07.973Z,11.90
2023-05-05T06:06:36.016Z,12.00
2023-05-05T06:09:03.313Z,12.20
2023-05-05T06:11:33.269Z,12.50
2023-05-05T06:14:00.674Z,12.70
2023-05-05T06:16:27.936Z,12.80
2023-05-05T06:18:56.011Z,13.00
2023-05-05T06:21:23.488Z,13.20
2023-05-05T06:23:51.741Z,13.50
2023-05-05T06:26:19.242Z,13.80
2023-05-05T06:28:46.370Z,13.70
2023-05-05T06:31:14.389Z,13.70
2023-05-05T06:33:41.557Z,13.50
2023-05-05T06:36:09.073Z,13.60
2023-05-05T06:38:36.298Z,13.80
2023-05-05T06:41:03.740Z,14.10
2023-05-05T06:43:31.227Z,14.10
2023-05-05T06:46:01.357Z,14.30
2023-05-05T06:48:28.528Z,14.30
2023-05-05T06:50:56.931Z,14.50
2023-05-05T06:53:24.239Z,14.60
2023-05-05T06:55:51.801Z,14.80
2023-05-05T06:58:19.204Z,15.20
2023-05-05T07:00:46.528Z,15.40
2023-05-05T07:03:14.456Z,15.50
2023-05-05T07:05:44.311Z,15.90
2023-05-05T07:08:11.477Z,16.00
2023-05-05T07:10:38.994Z,16.00
2023-05-05T07:13:08.468Z,15.90
2023-05-05T07:15:35.907Z,16.00
2023-05-05T07:18:03.220Z,16.20
2023-05-05T07:20:30.544Z,16.50
2023-05-05T07:22:57.580Z,16.70
2023-05-05T07:25:24.602Z,16.80
2023-05-05T07:27:51.757Z,16.90
2023-05-05T07:30:19.534Z,16.90
2023-05-05T07:32:47.362Z,16.90
2023-05-05T07:35:14.624Z,17.10
2023-05-05T07:37:41.635Z,17.20
2023-05-05T07:40:09.636Z,17.40
2023-05-05T07:42:36.894Z,17.20
2023-05-05T07:45:05.205Z,17.40
2023-05-05T07:47:32.775Z,17.80
2023-05-05T07:50:01.506Z,17.80
2023-05-05T07:52:44.135Z,17.80
2023-05-05T07:55:13.732Z,17.80
2023-05-05T07:57:40.987Z,17.90
2023-05-05T08:00:09.644Z,18.20
2023-05-05T08:02:40.102Z,18.20
2023-05-05T08:05:08.202Z,18.20
2023-05-05T08:07:38.243Z,18.20
2023-05-05T08:10:10.477Z,18.30
2023-05-05T08:12:38.135Z,18.50
2023-05-05T08:15:06.640Z,18.60
2023-05-05T08:17:52.005Z,18.70
2023-05-05T08:20:21.196Z,18.80
2023-05-05T08:22:48.317Z,18.60
2023-05-05T08:25:15.477Z,18.70
2023-05-05T08:27:46.009Z,19.00
2023-05-05T08:30:13.690Z,19.30
2023-05-05T08:32:40.875Z,19.80
2023-05-05T08:35:09.045Z,19.80
2023-05-05T08:37:36.520Z,19.80
2023-05-05T08:40:04.687Z,19.60
2023-05-05T08:42:36.967Z,19.70
2023-05-05T08:45:10.420Z,19.90
2023-05-05T08:47:39.332Z,20.00
2023-05-05T08:50:10.437Z,20.30
2023-05-05T08:52:49.196Z,20.30
2023-05-05T08:55:28.138Z,20.30
2023-05-05T08:57:57.928Z,20.30
2023-05-05T09:00:27.256Z,20.40
2023-05-05T09:02:59.586Z,20.60
2023-05-05T09:05:27.549Z,20.80
2023-05-05T09:07:54.752Z,20.90
2023-05-05T09:10:21.984Z,21.10
2023-05-05T09:12:51.212Z,21.30
2023-05-05T09:15:18.602Z,20.90
2023-05-05T09:17:47.038Z,21.40
2023-05-05T09:20:15.537Z,21.40
2023-05-05T09:22:46.269Z,21.50
2023-05-05T09:25:15.683Z,21.50
2023-05-05T09:27:49.263Z,21.40
2023-05-05T09:30:26.178Z,21.50
2023-05-05T09:32:55.295Z,21.50
2023-05-05T09:35:23.530Z,21.50
2023-05-05T09:37:50.888Z,21.30
2023-05-05T09:40:19.277Z,21.30
2023-05-05T09:42:47.359Z,21.40
2023-05-05T09:45:20.595Z,21.60
2023-05-05T09:47:48.888Z,21.40
2023-05-05T09:50:20.283Z,21.30
2023-05-05T09:53:02.417Z,21.60
2023-05-05T09:55:33.081Z,21.90
2023-05-05T09:58:30.906Z,21.80
2023-05-05T10:00:59.130Z,21.70
2023-05-05T10:03:26.646Z,21.80
2023-05-05T10:05:56.800Z,21.70
2023-05-05T10:08:31.584Z,21.70
2023-05-05T10:11:07.524Z,22.00
2023-05-05T10:13:42.074Z,21.90
2023-05-05T10:16:11.870Z,22.10
2023-05-05T10:18:46.550Z,22.30
2023-05-05T10:21:17.781Z,22.40
2023-05-05T10:23:50.329Z,22.30
2023-05-05T10:26:19.833Z,22.30
2023-05-05T10:28:57.080Z,22.30
2023-05-05T10:31:48.286Z,22.40
2023-05-05T10:34:27.292Z,22.70
2023-05-05T10:36:57.360Z,22.90
2023-05-05T10:39:25.155Z,22.70
2023-05-05T10:41:53.573Z,22.60
2023-05-05T10:44:22.604Z,22.70
2023-05-05T10:46:50.353Z,22.70
2023-05-05T10:49:54.707Z,23.00
2023-05-05T10:52:33.819Z,23.40
2023-05-05T10:55:19.476Z,23.50
2023-05-05T10:57:53.092Z,23.90
2023-05-05T11:00:38.600Z,23.90
2023-05-05T11:03:17.685Z,24.10
2023-05-05T11:06:03.786Z,24.10
2023-05-05T11:08:32.717Z,24.10
2023-05-05T11:11:01.156Z,24.10
2023-05-05T11:13:29.264Z,24.20
2023-05-05T11:15:57.845Z,24.50
2023-05-05T11:18:38.557Z,25.00
2023-05-05T11:21:17.554Z,24.90
2023-05-05T11:23:53.080Z,24.80
2023-05-05T11:26:51.261Z,25.40
2023-05-05T11:29:18.363Z,25.70
2023-05-05T11:31:47.902Z,25.90
2023-05-05T11:34:28.470Z,25.50
2023-05-05T11:37:14.051Z,25.10
2023-05-05T11:40:02.679Z,25.20
2023-05-05T11:42:30.477Z,25.90
2023-05-05T11:44:57.801Z,26.10
2023-05-05T11:47:28.618Z,27.00
2023-05-05T11:49:56.540Z,27.60
2023-05-05T11:52:26.224Z,28.80
2023-05-05T11:54:54.527Z,28.50
2023-05-05T11:57:30.025Z,28.80
2023-05-05T11:59:59.644Z,29.20
2023-05-05T12:02:28.366Z,30.40
2023-05-05T12:04:57.170Z,30.80
2023-05-05T12:07:30.952Z,31.50
2023-05-05T12:09:58.628Z,31.20
2023-05-05T12:12:40.237Z,30.80
2023-05-05T12:15:09.720Z,31.20
2023-05-05T12:17:46.079Z,32.30
2023-05-05T12:20:14.246Z,33.70
2023-05-05T12:22:41.697Z,33.90
2023-05-05T12:25:09.604Z,31.70
2023-05-05T12:27:36.804Z,31.10
2023-05-05T12:30:16.695Z,29.90
2023-05-05T12:32:45.216Z,28.80
2023-05-05T12:35:12.970Z,28.70
2023-05-05T12:37:40.478Z,28.10
2023-05-05T12:40:09.033Z,28.20
2023-05-05T12:42:40.323Z,27.50
2023-05-05T12:45:17.489Z,28.00
2023-05-05T12:47:44.891Z,28.30
2023-05-05T12:50:12.261Z,29.60
2023-05-05T12:52:46.337Z,31.30
2023-05-05T12:55:13.568Z,31.80
2023-05-05T12:58:04.826Z,32.80
2023-05-05T13:00:32.799Z,32.10
2023-05-05T13:03:00.289Z,33.10
2023-05-05T13:05:36.620Z,34.00
2023-05-05T13:08:04.749Z,34.00
2023-05-05T13:10:32.412Z,35.00
2023-05-05T13:12:59.601Z,33.70
2023-05-05T13:15:27.618Z,33.40
2023-05-05T13:18:01.854Z,33.20
2023-05-05T13:20:29.064Z,32.60
2023-05-05T13:22:56.206Z,31.60
2023-05-05T13:25:23.421Z,30.70
2023-05-05T13:27:50.532Z,30.90
2023-05-05T13:30:17.586Z,31.20
2023-05-05T13:32:44.680Z,30.90
2023-05-05T13:35:13.940Z,31.30
2023-05-05T13:37:42.701Z,31.00
2023-05-05T13:40:10.849Z,30.70
2023-05-05T13:42:37.914Z,29.80
2023-05-05T13:45:05.732Z,28.80
2023-05-05T13:47:32.872Z,28.10
2023-05-05T13:49:59.927Z,27.80
2023-05-05T13:52:27.722Z,27.20
2023-05-05T13:54:55.600Z,26.40
2023-05-05T13:57:23.328Z,26.50
2023-05-05T13:59:50.692Z,26.60
2023-05-05T14:02:17.799Z,26.60
2023-05-05T14:04:44.930Z,27.10
2023-05-05T14:07:11.946Z,27.50
2023-05-05T14:09:39.127Z,28.70
2023-05-05T14:12:06.367Z,29.70
2023-05-05T14:14:34.454Z,30.60
2023-05-05T14:17:01.669Z,30.60
2023-05-05T14:19:28.981Z,31.90
2023-05-05T14:21:56.036Z,31.90
2023-05-05T14:24:23.336Z,31.80
2023-05-05T14:26:50.485Z,31.10
2023-05-05T14:29:17.605Z,30.60
2023-05-05T14:31:44.684Z,31.10
2023-05-05T14:34:11.730Z,31.40
2023-05-05T14:36:38.830Z,31.40
2023-05-05T14:39:05.953Z,30.60
2023-05-05T14:41:32.998Z,30.20
2023-05-05T14:44:00.160Z,29.90
2023-05-05T14:46:27.522Z,30.10
2023-05-05T14:48:54.642Z,30.20
2023-05-05T14:51:21.729Z,30.30
2023-05-05T14:53:48.780Z,29.90
2023-05-05T14:56:16.170Z,30.70
2023-05-05T14:58:43.894Z,31.60
2023-05-05T15:01:11.054Z,31.00
2023-05-05T15:03:38.301Z,29.50
2023-05-05T15:06:05.614Z,29.50
2023-05-05T15:08:32.768Z,29.20
2023-05-05T15:10:59.877Z,28.30
2023-05-05T15:13:27.158Z,29.10
2023-05-05T15:15:54.275Z,28.70
2023-05-05T15:18:21.420Z,28.80
2023-05-05T15:20:48.525Z,29.20
2023-05-05T15:23:16.114Z,29.30
2023-05-05T15:25:43.317Z,29.30
2023-05-05T15:28:10.350Z,29.10
2023-05-05T15:30:37.443Z,28.70
2023-05-05T15:33:04.842Z,29.20
2023-05-05T15:35:32.260Z,29.40
2023-05-05T15:37:59.339Z,29.40
2023-05-05T15:40:26.477Z,29.80
2023-05-05T15:42:53.715Z,30.50
2023-05-05T15:45:20.866Z,29.40
2023-05-05T15:47:48.129Z,29.00
2023-05-05T15:50:16.207Z,28.30
2023-05-05T15:52:43.452Z,27.70
2023-05-05T15:55:11.016Z,27.00
2023-05-05T15:57:41.438Z,26.80
2023-05-05T16:00:09.540Z,26.40
2023-05-05T16:02:37.655Z,25.90
2023-05-05T16:05:05.593Z,26.20
2023-05-05T16:07:32.673Z,26.30
2023-05-05T16:09:59.703Z,26.00
2023-05-05T16:12:27.028Z,25.90
2023-05-05T16:14:54.127Z,25.80
2023-05-05T16:17:22.368Z,25.20
2023-05-05T16:19:50.197Z,25.10
2023-05-05T16:22:17.483Z,24.80
2023-05-05T16:24:44.568Z,24.60
2023-05-05T16:27:11.742Z,24.50
2023-05-05T16:29:38.993Z,24.50
2023-05-05T16:32:06.290Z,24.40
2023-05-05T16:34:33.477Z,24.20
2023-05-05T16:37:00.830Z,24.10
2023-05-05T16:39:27.860Z,24.10
2023-05-05T16:41:55.059Z,23.90
2023-05-05T16:44:22.240Z,23.70
2023-05-05T16:46:49.375Z,23.40
2023-05-05T16:49:16.477Z,23.30
2023-05-05T16:51:43.628Z,22.90
2023-05-05T16:54:10.779Z,22.80
2023-05-05T16:56:37.821Z,22.80
2023-05-05T16:59:04.874Z,22.60
2023-05-05T17:01:32.253Z,22.70
2023-05-05T17:04:02.489Z,22.60
2023-05-05T17:06:33.165Z,22.50
2023-05-05T17:09:00.282Z,22.30
2023-05-05T17:11:27.488Z,22.20
2023-05-05T17:13:54.521Z,22.10
2023-05-05T17:16:21.652Z,22.20
2023-05-05T17:18:48.820Z,22.10
2023-05-05T17:21:15.934Z,22.00
2023-05-05T17:23:42.957Z,21.80
2023-05-05T17:26:10.053Z,21.70
2023-05-05T17:28:37.488Z,21.70
2023-05-05T17:31:04.567Z,21.60
2023-05-05T17:33:31.716Z,21.60
2023-05-05T17:35:58.818Z,21.50
2023-05-05T17:38:25.931Z,21.50
2023-05-05T17:40:53.088Z,21.40
2023-05-05T17:43:20.134Z,21.40
2023-05-05T17:45:47.197Z,21.30
2023-05-05T17:48:14.281Z,21.20
2023-05-05T17:50:43.119Z,21.10
2023-05-05T17:53:10.772Z,21.10
2023-05-05T17:55:38.002Z,21.00
2023-05-05T17:58:05.097Z,21.00
2023-05-05T18:00:32.207Z,20.80
2023-05-05T18:03:01.001Z,20.80
2023-05-05T18:05:28.383Z,20.70
2023-05-05T18:07:55.526Z,20.60
2023-05-05T18:10:23.309Z,20.60
2023-05-05T18:12:50.377Z,20.50
2023-05-05T18:15:17.643Z,20.40
2023-05-05T18:17:44.945Z,20.30
2023-05-05T18:20:12.287Z,20.30
2023-05-05T18:22:39.752Z,20.30
2023-05-05T18:25:08.361Z,20.20
2023-05-05T18:27:36.082Z,20.10
2023-05-05T18:30:04.861Z,20.00
2023-05-05T18:32:32.639Z,20.00
2023-05-05T18:34:59.755Z,20.00
2023-05-05T18:37:27.888Z,20.00
2023-05-05T18:39:55.135Z,19.90
2023-05-05T18:42:22.605Z,19.90
2023-05-05T18:44:49.716Z,19.90
2023-05-05T18:47:16.791Z,19.80
2023-05-05T18:49:45.368Z,19.80
2023-05-05T18:52:12.687Z,19.70
2023-05-05T18:54:39.787Z,19.70
2023-05-05T18:57:07.066Z,19.60
2023-05-05T18:59:35.460Z,19.60
2023-05-05T19:02:02.895Z,19.50
2023-05-05T19:04:31.307Z,19.50
2023-05-05T19:06:59.993Z,19.40
2023-05-05T19:09:27.607Z,19.40
2023-05-05T19:11:54.875Z,19.40
2023-05-05T19:14:23.050Z,19.30
2023-05-05T19:16:50.199Z,19.20
2023-05-05T19:19:17.467Z,19.20
2023-05-05T19:21:44.692Z,19.30
2023-05-05T19:24:11.844Z,19.30
2023-05-05T19:26:39.102Z,19.30
2023-05-05T19:29:06.433Z,19.30
2023-05-05T19:31:33.592Z,19.20
2023-05-05T19:34:04.003Z,19.00
2023-05-05T19:36:32.413Z,19.00
2023-05-05T19:39:04.773Z,19.00
2023-05-05T19:41:32.678Z,18.90
2023-05-05T19:44:00.190Z,18.80
2023-05-05T19:46:27.364Z,18.80
2023-05-05T19:48:54.493Z,18.80
2023-05-05T19:51:21.767Z,18.70
2023-05-05T19:53:48.874Z,18.70
2023-05-05T19:56:17.026Z,18.60
2023-05-05T19:59:01.366Z,18.50
2023-05-05T20:01:29.336Z,18.50
2023-05-05T20:03:57.431Z,18.40
2023-05-05T20:06:24.933Z,18.30
2023-05-05T20:08:52.449Z,18.30
2023-05-05T20:11:21.161Z,18.30
2023-05-05T20:13:49.989Z,18.20
2023-05-05T20:16:17.617Z,18.30
2023-05-05T20:18:44.940Z,18.20
2023-05-05T20:21:12.174Z,18.20
2023-05-05T20:23:39.559Z,18.20
2023-05-05T20:26:07.798Z,18.20
2023-05-05T20:28:45.122Z,18.10
2023-05-05T20:31:14.854Z,18.10
2023-05-05T20:33:44.731Z,18.10
2023-05-05T20:36:12.046Z,18.00
2023-05-05T20:38:39.103Z,18.00
2023-05-05T20:41:06.404Z,17.90
2023-05-05T20:43:34.018Z,17.90
2023-05-05T20:46:01.163Z,17.90
2023-05-05T20:48:29.031Z,18.00
2023-05-05T20:50:56.204Z,18.00
2023-05-05T20:53:25.723Z,17.90
2023-05-05T20:55:52.838Z,17.90
2023-05-05T20:58:20.016Z,17.90
2023-05-05T21:00:47.342Z,17.80
2023-05-05T21:03:14.630Z,17.80
2023-05-05T21:05:42.053Z,17.80
2023-05-05T21:08:09.165Z,17.70
2023-05-05T21:10:36.726Z,17.70
2023-05-05T21:13:04.117Z,17.70
2023-05-05T21:15:31.986Z,17.70
2023-05-05T21:17:59.234Z,17.70
2023-05-05T21:20:26.755Z,17.70
2023-05-05T21:22:53.936Z,17.60
2023-05-05T21:25:21.957Z,17.70
2023-05-05T21:27:49.540Z,17.70
2023-05-05T21:30:17.294Z,17.60
2023-05-05T21:32:44.902Z,17.60
2023-05-05T21:35:12.260Z,17.60
2023-05-05T21:37:40.130Z,17.60
2023-05-05T21:40:13.643Z,17.60
2023-05-05T21:42:42.661Z,17.60
2023-05-05T21:45:11.715Z,17.50
2023-05-05T21:47:39.045Z,17.40
2023-05-05T21:50:07.470Z,17.40
2023-05-05T21:52:34.795Z,17.40
2023-05-05T21:55:02.159Z,17.40
2023-05-05T21:57:29.335Z,17.30
2023-05-05T21:59:56.409Z,17.20
2023-05-05T22:02:23.710Z,17.20
2023-05-05T22:04:54.110Z,17.20
2023-05-05T22:07:21.235Z,17.20
2023-05-05T22:09:48.429Z,17.20
2023-05-05T22:12:16.407Z,17.20
2023-05-05T22:14:43.502Z,17.10
2023-05-05T22:17:11.689Z,17.10
2023-05-05T22:19:38.749Z,17.00
2023-05-05T22:22:05.789Z,17.00
2023-05-05T22:24:32.958Z,17.00
2023-05-05T22:27:00.137Z,16.90
2023-05-05T22:29:27.524Z,16.90
2023-05-05T22:31:54.700Z,16.90
2023-05-05T22:34:21.959Z,17.00
2023-05-05T22:36:49.768Z,17.00
2023-05-05T22:39:18.586Z,17.00
2023-05-05T22:41:46.357Z,17.00
2023-05-05T22:44:13.540Z,17.00
2023-05-05T22:46:40.946Z,17.00
2023-05-05T22:49:08.808Z,17.00
2023-05-05T22:51:35.998Z,17.00
2023-05-05T22:54:03.361Z,16.90
2023-05-05T22:56:30.528Z,16.90
2023-05-05T22:58:57.665Z,16.80
2023-05-05T23:01:24.780Z,16.80
2023-05-05T23:03:52.024Z,16.80
2023-05-05T23:06:19.150Z,16.70
2023-05-05T23:08:46.420Z,16.70
2023-05-05T23:11:13.505Z,16.70
2023-05-05T23:13:40.762Z,16.60
2023-05-05T23:16:08.361Z,16.50
2023-05-05T23:18:36.725Z,16.30
2023-05-05T23:21:04.077Z,16.30
2023-05-05T23:23:31.883Z,16.10
2023-05-05T23:25:58.958Z,15.90
2023-05-05T23:28:26.064Z,15.70
2023-05-05T23:30:53.177Z,15.60
2023-05-05T23:33:20.446Z,15.50
2023-05-05T23:35:47.855Z,15.40
2023-05-05T23:38:14.996Z,15.50
2023-05-05T23:40:42.328Z,15.50
2023-05-05T23:43:09.441Z,15.60
2023-05-05T23:45:36.484Z,15.60
2023-05-05T23:48:03.892Z,15.50
2023-05-05T23:50:31.080Z,15.40
2023-05-05T23:52:58.109Z,15.20
2023-05-05T23:55:25.296Z,15.10
2023-05-05T23:57:53.158Z,15.10
